Milwaukee, Wisconsin
Traffic Map
Current Weather Conditions
Milwaukee, Wisconsin
Broken Clouds Haze
Broken Clouds

Feels Like: 8°
Wind Chill: Ceiling: 24000
Heat Index: Visibility: 4mi
Dew Point: Wind: 3mph
Humidity: 93% Direction: 120° (ESE)
Pressure: 29.88in Gusts: 0mph
Raw Report DataKMKE 220052Z 12003KT 4SM BR FEW001 SCT180 BKN240 08/07 A2988 RMK AO2 SLP122 T00780067
Traffic Incident Summary
Active as of:
Severity:
Category:
InformationThere was an issue retrieving the traffic information for this location. Please try a different location or try again shortly.
Advertisements
Track Severe Weather on mobile